Terminal Aerodrome Forecast
Issued by NWS

Home | Current Version | Previous Version | Text Only | Print | Product List | Glossary On
Versions: 1 2 3 4 5 6 7 8 9 10 11 12 13 14 15 16 17 18 19 20 21 22 23 24
000
FTUS42 KJAX 050404 AAB
TAFCRG
TAF AMD
KCRG 050404Z 0504/0524 VRB02KT 2SM BR SCT150 BKN250
      TEMPO 0507/0511 5SM BR
     FM051100 23002KT 6SM HZ SCT250
     FM051400 25005KT P6SM SCT030 SCT120
     FM051800 24007KT P6SM VCTS SCT040CB
     FM052000 14008KT P6SM VCTS SCT040CB BKN250
      TEMPO 0520/0524 VRB15G25KT 3SM TSRA BR BKN030CB OVC060=

USA.gov is the U.S. government's official web portal to all federal, state and local government web resources and services.